»·PEaware :: N181DJ KBUR-KLAS

N181DJ :: KBUR-KLAS

FLIGHT INFORMATION

Flight Status: Arrived
Operator: Privately registered:
United States
More flights under this callsign
Pilot: Brian H. (29287)
Aircraft: PIPER PA-28 CHEROKEE ARCHER
(PA28)
More flights by this aircraft type
Origin: KBUR Bob Hope-Burbank
United States
Destination: KLAS McCarran Intl
United States
More flights between these airports :: More routes between these airports
Route: +VNY3 DAG CRESO4
File this flight plan on PilotEdge
Remarks:
Altitude:
(Current/Filed)
7,000ft
Speed:
(Current/Filed)
110kts
Departed: 20-Oct-20 12:49 PM
Arrived: 20-Oct-20 02:49 PM
Distance/Time
Traveled:
193nm/2:00
Distance/Time
To Go:
Arrived

Flight Plot

Page will automatically refresh every two minutes.

Flight plan parsing failed; only flown route is shown


Map Options




Map Legend


Flown Route
Filed Route
Departure Airport
Arrival Airport
Navaid (VOR, NDB)
Fix

Horizontal Profiles

Position Reports

Time Latitude Longitude Heading Altitude Ground
Speed
20-Oct-20 12:30 34.196221 -118.367802 1 722ft 0kts
20-Oct-20 12:31 34.196221 -118.367802 1 722ft 0kts
20-Oct-20 12:31 34.196221 -118.367802 1 722ft 0kts
20-Oct-20 12:33 34.196221 -118.367802 1 722ft 0kts
20-Oct-20 12:34 34.196221 -118.367802 1 722ft 0kts
20-Oct-20 12:34 34.196221 -118.367802 1 722ft 0kts
20-Oct-20 12:36 34.196221 -118.367802 1 722ft 0kts
20-Oct-20 12:36 34.196221 -118.367802 1 722ft 0kts
20-Oct-20 12:37 34.196221 -118.367802 1 722ft 0kts
20-Oct-20 12:38 34.196221 -118.367802 1 722ft 0kts
20-Oct-20 12:39 34.196221 -118.367802 1 722ft 0kts
20-Oct-20 12:40 34.196221 -118.367802 1 722ft 0kts
20-Oct-20 12:41 34.196221 -118.367802 1 722ft 0kts
20-Oct-20 12:42 34.196221 -118.367802 1 722ft 0kts
20-Oct-20 12:43 34.196221 -118.367802 1 722ft 0kts
20-Oct-20 12:44 34.196510 -118.367782 1 723ft 6kts
20-Oct-20 12:45 34.197046 -118.368833 314 725ft 0kts
20-Oct-20 12:46 34.197046 -118.368833 314 725ft 0kts
20-Oct-20 12:47 34.197897 -118.368960 67 726ft 8kts
20-Oct-20 12:48 34.196742 -118.348434 104 1033ft 85kts
20-Oct-20 12:49 34.180075 -118.353938 225 1683ft 88kts
20-Oct-20 12:50 34.163558 -118.374601 227 2371ft 84kts
20-Oct-20 12:51 34.147211 -118.394823 227 2994ft 84kts
20-Oct-20 12:52 34.130581 -118.415178 227 3622ft 86kts
20-Oct-20 12:53 34.112795 -118.436945 235 4053ft 108kts
20-Oct-20 12:54 34.128089 -118.462940 355 4103ft 124kts
20-Oct-20 12:55 34.156189 -118.459782 2 4832ft 99kts
20-Oct-20 12:56 34.184761 -118.458942 0 5287ft 101kts
20-Oct-20 12:57 34.212612 -118.459098 0 5785ft 98kts
20-Oct-20 12:58 34.239341 -118.459394 0 6280ft 93kts
20-Oct-20 12:59 34.264711 -118.459784 0 6746ft 90kts
20-Oct-20 13:00 34.289709 -118.460185 0 7190ft 89kts
20-Oct-20 13:01 34.314332 -118.460569 0 7634ft 87kts
20-Oct-20 13:02 34.338352 -118.460891 0 8076ft 84kts
20-Oct-20 13:03 34.361493 -118.461112 0 8516ft 81kts
20-Oct-20 13:04 34.383583 -118.455384 46 8841ft 94kts
20-Oct-20 13:05 34.400697 -118.428666 50 9079ft 109kts
20-Oct-20 13:06 34.421276 -118.396224 50 9079ft 125kts
20-Oct-20 13:07 34.441963 -118.362776 50 9080ft 122kts
20-Oct-20 13:08 34.462441 -118.329523 50 9085ft 122kts
20-Oct-20 13:09 34.483082 -118.295879 50 9047ft 126kts
20-Oct-20 13:10 34.504210 -118.261704 49 9060ft 125kts
20-Oct-20 13:11 34.525422 -118.228024 49 9073ft 125kts
20-Oct-20 13:12 34.546572 -118.194362 49 9035ft 129kts
20-Oct-20 13:13 34.568437 -118.159640 49 8995ft 127kts
20-Oct-20 13:14 34.589921 -118.125470 49 8997ft 126kts
20-Oct-20 13:15 34.611329 -118.091446 49 8999ft 126kts
20-Oct-20 13:16 34.628743 -118.054751 79 8999ft 130kts
20-Oct-20 13:17 34.633820 -118.010852 79 8995ft 130kts
20-Oct-20 13:18 34.639918 -117.967426 77 8991ft 130kts
20-Oct-20 13:19 34.645319 -117.923636 79 8987ft 130kts
20-Oct-20 13:20 34.650316 -117.879990 79 8983ft 130kts
20-Oct-20 13:21 34.655322 -117.836163 79 8978ft 130kts
20-Oct-20 13:22 34.660229 -117.792630 79 8981ft 129kts
20-Oct-20 13:23 34.667016 -117.749903 70 8984ft 127kts
20-Oct-20 13:24 34.677294 -117.708797 69 8987ft 125kts
20-Oct-20 13:25 34.687886 -117.668383 69 8990ft 124kts
20-Oct-20 13:26 34.698702 -117.628381 69 8993ft 126kts
20-Oct-20 13:27 34.710013 -117.586267 72 9001ft 132kts
20-Oct-20 13:28 34.721288 -117.542973 71 9000ft 134kts
20-Oct-20 13:29 34.732575 -117.499657 71 9000ft 134kts
20-Oct-20 13:30 34.743933 -117.456081 71 9000ft 134kts
20-Oct-20 13:31 34.755242 -117.412704 71 9000ft 134kts
20-Oct-20 13:32 34.766616 -117.369084 71 9001ft 134kts
20-Oct-20 13:33 34.777991 -117.325611 72 8997ft 134kts
20-Oct-20 13:34 34.789481 -117.282190 68 8994ft 133kts
20-Oct-20 13:35 34.799458 -117.240149 70 8988ft 126kts
20-Oct-20 13:36 34.809660 -117.199371 70 8982ft 125kts
20-Oct-20 13:37 34.819902 -117.158430 70 8976ft 126kts
20-Oct-20 13:38 34.830243 -117.117273 70 8968ft 127kts
20-Oct-20 13:39 34.840784 -117.075805 70 8963ft 128kts
20-Oct-20 13:40 34.851561 -117.034239 70 8959ft 129kts
20-Oct-20 13:41 34.862693 -116.992249 70 8956ft 130kts
20-Oct-20 13:42 34.873826 -116.950925 71 9019ft 128kts
20-Oct-20 13:43 34.884204 -116.908816 72 9018ft 130kts
20-Oct-20 13:44 34.894869 -116.866361 72 9018ft 131kts
20-Oct-20 13:45 34.905617 -116.823890 72 9017ft 129kts
20-Oct-20 13:46 34.915430 -116.782220 73 9018ft 126kts
20-Oct-20 13:47 34.924678 -116.740905 73 9018ft 125kts
20-Oct-20 13:48 34.933923 -116.699706 73 9018ft 125kts
20-Oct-20 13:49 34.943177 -116.658573 73 9018ft 125kts
20-Oct-20 13:50 34.952461 -116.617410 73 9019ft 125kts
20-Oct-20 13:51 34.962573 -116.576564 64 9019ft 125kts
20-Oct-20 13:52 34.976681 -116.537658 63 9045ft 123kts
20-Oct-20 13:53 34.990802 -116.502515 59 9284ft 111kts
20-Oct-20 13:54 35.005408 -116.470518 59 9540ft 104kts
20-Oct-20 13:55 35.019192 -116.440533 59 9798ft 98kts
20-Oct-20 13:56 35.032395 -116.412072 59 10057ft 93kts
20-Oct-20 13:57 35.045001 -116.385202 59 10314ft 87kts
20-Oct-20 13:58 35.056625 -116.360612 64 10560ft 78kts
20-Oct-20 13:59 35.067245 -116.336316 60 10684ft 82kts
20-Oct-20 14:00 35.078105 -116.312309 67 10856ft 80kts
20-Oct-20 14:01 35.088714 -116.287990 59 11007ft 82kts
20-Oct-20 14:02 35.102187 -116.260261 60 11009ft 106kts
20-Oct-20 14:03 35.118464 -116.226364 60 11005ft 121kts
20-Oct-20 14:04 35.135513 -116.188856 62 11003ft 129kts
20-Oct-20 14:05 35.152819 -116.149755 62 11002ft 131kts
20-Oct-20 14:06 35.170283 -116.110284 62 11002ft 132kts
20-Oct-20 14:07 35.187824 -116.070636 62 11002ft 132kts
20-Oct-20 14:08 35.205397 -116.030913 61 11002ft 132kts
20-Oct-20 14:09 35.222946 -115.990972 61 10970ft 134kts
20-Oct-20 14:10 35.240304 -115.950942 61 10968ft 132kts
20-Oct-20 14:12 35.257576 -115.911115 61 10969ft 131kts
20-Oct-20 14:13 35.274804 -115.871504 61 10974ft 131kts
20-Oct-20 14:14 35.292075 -115.831970 61 10980ft 131kts
20-Oct-20 14:15 35.309276 -115.792781 58 11001ft 130kts
20-Oct-20 14:16 35.332774 -115.759289 46 11005ft 129kts
20-Oct-20 14:17 35.356871 -115.726233 46 11009ft 129kts
20-Oct-20 14:18 35.381424 -115.693725 45 11013ft 129kts
20-Oct-20 14:19 35.406065 -115.661227 45 11015ft 129kts
20-Oct-20 14:20 35.430724 -115.628714 45 11015ft 130kts
20-Oct-20 14:21 35.455361 -115.596222 45 11019ft 129kts
20-Oct-20 14:22 35.481464 -115.560924 45 10575ft 150kts
20-Oct-20 14:23 35.509237 -115.524325 45 10085ft 137kts
20-Oct-20 14:24 35.534682 -115.490697 45 10090ft 131kts
20-Oct-20 14:25 35.559617 -115.457709 45 10090ft 130kts
20-Oct-20 14:26 35.584371 -115.424947 45 10091ft 130kts
20-Oct-20 14:26 35.605072 -115.397545 45 10091ft 130kts
20-Oct-20 14:28 35.633973 -115.359279 45 10091ft 130kts
20-Oct-20 14:28 35.654606 -115.331960 46 10090ft 130kts
20-Oct-20 14:30 35.682635 -115.292735 48 10090ft 130kts
20-Oct-20 14:30 35.704923 -115.268505 22 10090ft 128kts
20-Oct-20 14:31 35.738437 -115.252784 19 10090ft 128kts
20-Oct-20 14:32 35.771929 -115.236636 20 10090ft 128kts
20-Oct-20 14:33 35.805340 -115.220368 20 10090ft 128kts
20-Oct-20 14:34 35.838770 -115.204083 20 10090ft 128kts
20-Oct-20 14:35 35.872220 -115.187778 20 10088ft 129kts
20-Oct-20 14:36 35.905733 -115.171430 20 10085ft 129kts
20-Oct-20 14:37 35.939111 -115.155132 20 10082ft 129kts
20-Oct-20 14:38 35.975614 -115.137410 20 9433ft 143kts
20-Oct-20 14:39 36.012495 -115.119562 20 8720ft 140kts
20-Oct-20 14:40 36.048896 -115.102035 20 8010ft 139kts
20-Oct-20 14:41 36.085088 -115.084739 20 7302ft 139kts
20-Oct-20 14:42 36.121238 -115.067620 20 6594ft 138kts
20-Oct-20 14:43 36.154500 -115.072675 307 5690ft 130kts
20-Oct-20 14:44 36.172319 -115.110938 279 4465ft 140kts
20-Oct-20 14:45 36.144146 -115.131094 199 3605ft 130kts
20-Oct-20 14:46 36.114581 -115.147616 205 2751ft 83kts
20-Oct-20 14:47 36.095250 -115.159000 206 2099ft 63kts
20-Oct-20 14:48 36.089369 -115.163436 285 2129ft 0kts
20-Oct-20 14:49 36.089459 -115.163909 279 2131ft 8kts
20-Oct-20 14:50 36.089335 -115.166094 348 2138ft 0kts
20-Oct-20 14:51 36.089335 -115.166094 348 2138ft 0kts
20-Oct-20 14:52 36.089335 -115.166094 348 2138ft 0kts
20-Oct-20 14:53 36.089335 -115.166094 348 2138ft 0kts
20-Oct-20 14:54 36.089335 -115.166094 348 2138ft 0kts
20-Oct-20 14:55 36.089335 -115.166094 348 2138ft 0kts
20-Oct-20 14:56 36.089335 -115.166094 348 2138ft 0kts
20-Oct-20 14:57 36.089335 -115.166094 348 2138ft 0kts
20-Oct-20 14:58 36.089335 -115.166094 348 2138ft 0kts
20-Oct-20 14:59 36.089335 -115.166094 348 2138ft 0kts
20-Oct-20 15:00 36.089335 -115.166094 348 2138ft 0kts
20-Oct-20 15:01 36.089335 -115.166094 348 2138ft 0kts
20-Oct-20 15:02 36.089335 -115.166094 348 2138ft 0kts
20-Oct-20 15:03 36.089335 -115.166094 348 2138ft 0kts

Navigation Log

Ident Type
Flight plan parsing failed, navigation log unavailable